sensor_id;sensor_type;location;lat;lon;timestamp;temperature;humidity
77727;SHT30;68312;53.502;10.030;2023-09-07T00:01:43;16.33;91.94
77727;SHT30;68312;53.502;10.030;2023-09-07T00:04:08;16.36;92.07
77727;SHT30;68312;53.502;10.030;2023-09-07T00:06:35;16.37;92.17
77727;SHT30;68312;53.502;10.030;2023-09-07T00:09:03;16.32;92.15
77727;SHT30;68312;53.502;10.030;2023-09-07T00:11:29;16.36;92.39
77727;SHT30;68312;53.502;10.030;2023-09-07T00:13:54;16.39;92.45
77727;SHT30;68312;53.502;10.030;2023-09-07T00:16:20;16.39;92.47
77727;SHT30;68312;53.502;10.030;2023-09-07T00:18:45;16.34;92.40
77727;SHT30;68312;53.502;10.030;2023-09-07T00:21:11;16.28;92.38
77727;SHT30;68312;53.502;10.030;2023-09-07T00:23:36;16.23;92.28
77727;SHT30;68312;53.502;10.030;2023-09-07T00:26:02;16.18;92.30
77727;SHT30;68312;53.502;10.030;2023-09-07T00:28:27;16.16;92.42
77727;SHT30;68312;53.502;10.030;2023-09-07T00:30:53;16.13;92.32
77727;SHT30;68312;53.502;10.030;2023-09-07T00:33:18;16.10;92.37
77727;SHT30;68312;53.502;10.030;2023-09-07T00:35:44;16.06;92.33
77727;SHT30;68312;53.502;10.030;2023-09-07T00:38:09;16.02;92.33
77727;SHT30;68312;53.502;10.030;2023-09-07T00:40:36;15.98;92.34
77727;SHT30;68312;53.502;10.030;2023-09-07T00:43:02;15.97;92.30
77727;SHT30;68312;53.502;10.030;2023-09-07T00:45:30;15.91;92.38
77727;SHT30;68312;53.502;10.030;2023-09-07T00:47:56;15.88;92.36
77727;SHT30;68312;53.502;10.030;2023-09-07T00:50:21;15.82;92.39
77727;SHT30;68312;53.502;10.030;2023-09-07T00:52:47;15.84;92.50
77727;SHT30;68312;53.502;10.030;2023-09-07T00:55:14;15.79;92.38
77727;SHT30;68312;53.502;10.030;2023-09-07T00:57:40;15.78;92.45
77727;SHT30;68312;53.502;10.030;2023-09-07T01:00:10;15.77;92.49
77727;SHT30;68312;53.502;10.030;2023-09-07T01:02:35;15.75;92.53
77727;SHT30;68312;53.502;10.030;2023-09-07T01:05:04;15.72;92.48
77727;SHT30;68312;53.502;10.030;2023-09-07T01:07:38;15.70;92.48
77727;SHT30;68312;53.502;10.030;2023-09-07T01:10:06;15.65;92.47
77727;SHT30;68312;53.502;10.030;2023-09-07T01:12:33;15.60;92.53
77727;SHT30;68312;53.502;10.030;2023-09-07T01:14:58;15.57;92.62
77727;SHT30;68312;53.502;10.030;2023-09-07T01:17:25;15.53;92.62
77727;SHT30;68312;53.502;10.030;2023-09-07T01:19:52;15.47;92.64
77727;SHT30;68312;53.502;10.030;2023-09-07T01:22:21;15.44;92.61
77727;SHT30;68312;53.502;10.030;2023-09-07T01:24:51;15.39;92.64
77727;SHT30;68312;53.502;10.030;2023-09-07T01:27:18;15.33;92.72
77727;SHT30;68312;53.502;10.030;2023-09-07T01:29:44;15.33;92.70
77727;SHT30;68312;53.502;10.030;2023-09-07T01:32:10;15.29;92.69
77727;SHT30;68312;53.502;10.030;2023-09-07T01:34:37;15.24;92.78
77727;SHT30;68312;53.502;10.030;2023-09-07T01:37:02;15.23;92.77
77727;SHT30;68312;53.502;10.030;2023-09-07T01:39:28;15.20;92.80
77727;SHT30;68312;53.502;10.030;2023-09-07T01:41:53;15.18;92.87
77727;SHT30;68312;53.502;10.030;2023-09-07T01:44:19;15.14;92.86
77727;SHT30;68312;53.502;10.030;2023-09-07T01:46:44;15.13;92.83
77727;SHT30;68312;53.502;10.030;2023-09-07T01:49:10;15.10;92.82
77727;SHT30;68312;53.502;10.030;2023-09-07T01:51:35;15.16;93.07
77727;SHT30;68312;53.502;10.030;2023-09-07T01:54:02;15.18;93.06
77727;SHT30;68312;53.502;10.030;2023-09-07T01:56:27;15.16;93.01
77727;SHT30;68312;53.502;10.030;2023-09-07T01:58:53;15.13;93.01
77727;SHT30;68312;53.502;10.030;2023-09-07T02:01:27;15.13;93.08
77727;SHT30;68312;53.502;10.030;2023-09-07T02:03:55;15.09;93.02
77727;SHT30;68312;53.502;10.030;2023-09-07T02:06:20;15.06;93.07
77727;SHT30;68312;53.502;10.030;2023-09-07T02:08:45;15.04;93.00
77727;SHT30;68312;53.502;10.030;2023-09-07T02:11:11;15.00;93.04
77727;SHT30;68312;53.502;10.030;2023-09-07T02:13:36;14.99;93.06
77727;SHT30;68312;53.502;10.030;2023-09-07T02:16:05;14.96;93.11
77727;SHT30;68312;53.502;10.030;2023-09-07T02:18:33;14.95;93.13
77727;SHT30;68312;53.502;10.030;2023-09-07T02:21:04;14.89;93.10
77727;SHT30;68312;53.502;10.030;2023-09-07T02:23:31;14.86;93.09
77727;SHT30;68312;53.502;10.030;2023-09-07T02:25:57;14.86;93.20
77727;SHT30;68312;53.502;10.030;2023-09-07T02:28:24;14.81;93.08
77727;SHT30;68312;53.502;10.030;2023-09-07T02:30:54;14.82;93.13
77727;SHT30;68312;53.502;10.030;2023-09-07T02:33:20;14.79;93.13
77727;SHT30;68312;53.502;10.030;2023-09-07T02:35:48;14.81;93.20
77727;SHT30;68312;53.502;10.030;2023-09-07T02:38:14;14.75;93.16
77727;SHT30;68312;53.502;10.030;2023-09-07T02:40:41;14.71;93.11
77727;SHT30;68312;53.502;10.030;2023-09-07T02:43:10;14.69;93.15
77727;SHT30;68312;53.502;10.030;2023-09-07T02:45:38;14.65;93.10
77727;SHT30;68312;53.502;10.030;2023-09-07T02:48:05;14.69;93.21
77727;SHT30;68312;53.502;10.030;2023-09-07T02:50:34;14.71;93.26
77727;SHT30;68312;53.502;10.030;2023-09-07T02:53:01;14.69;93.25
77727;SHT30;68312;53.502;10.030;2023-09-07T02:59:08;14.67;93.26
77727;SHT30;68312;53.502;10.030;2023-09-07T03:01:34;14.65;93.22
77727;SHT30;68312;53.502;10.030;2023-09-07T03:03:59;14.57;93.10
77727;SHT30;68312;53.502;10.030;2023-09-07T03:06:25;14.54;93.08
77727;SHT30;68312;53.502;10.030;2023-09-07T03:08:50;14.48;93.09
77727;SHT30;68312;53.502;10.030;2023-09-07T03:11:22;14.46;93.11
77727;SHT30;68312;53.502;10.030;2023-09-07T03:13:48;14.46;93.20
77727;SHT30;68312;53.502;10.030;2023-09-07T03:16:13;14.42;93.10
77727;SHT30;68312;53.502;10.030;2023-09-07T03:18:39;14.38;93.11
77727;SHT30;68312;53.502;10.030;2023-09-07T03:21:04;14.34;93.13
77727;SHT30;68312;53.502;10.030;2023-09-07T03:23:32;14.34;93.22
77727;SHT30;68312;53.502;10.030;2023-09-07T03:25:59;14.32;93.20
77727;SHT30;68312;53.502;10.030;2023-09-07T03:28:25;14.28;93.22
77727;SHT30;68312;53.502;10.030;2023-09-07T03:30:54;14.25;93.27
77727;SHT30;68312;53.502;10.030;2023-09-07T03:33:19;14.30;93.51
77727;SHT30;68312;53.502;10.030;2023-09-07T03:35:45;14.31;93.54
77727;SHT30;68312;53.502;10.030;2023-09-07T03:38:11;14.24;93.54
77727;SHT30;68312;53.502;10.030;2023-09-07T03:40:36;14.20;93.49
77727;SHT30;68312;53.502;10.030;2023-09-07T03:43:02;14.21;93.61
77727;SHT30;68312;53.502;10.030;2023-09-07T03:45:27;14.16;93.61
77727;SHT30;68312;53.502;10.030;2023-09-07T03:47:53;14.17;93.69
77727;SHT30;68312;53.502;10.030;2023-09-07T03:50:18;14.24;93.76
77727;SHT30;68312;53.502;10.030;2023-09-07T03:52:44;14.24;93.80
77727;SHT30;68312;53.502;10.030;2023-09-07T03:55:09;14.28;93.85
77727;SHT30;68312;53.502;10.030;2023-09-07T03:57:35;14.30;93.91
77727;SHT30;68312;53.502;10.030;2023-09-07T04:00:00;14.21;93.71
77727;SHT30;68312;53.502;10.030;2023-09-07T04:02:26;14.16;93.68
77727;SHT30;68312;53.502;10.030;2023-09-07T04:04:54;14.13;93.69
77727;SHT30;68312;53.502;10.030;2023-09-07T04:07:23;14.07;93.67
77727;SHT30;68312;53.502;10.030;2023-09-07T04:09:50;14.06;93.64
77727;SHT30;68312;53.502;10.030;2023-09-07T04:12:16;14.04;93.73
77727;SHT30;68312;53.502;10.030;2023-09-07T04:14:41;14.00;93.69
77727;SHT30;68312;53.502;10.030;2023-09-07T04:17:08;14.02;93.73
77727;SHT30;68312;53.502;10.030;2023-09-07T04:19:34;13.99;93.75
77727;SHT30;68312;53.502;10.030;2023-09-07T04:22:00;13.99;93.79
77727;SHT30;68312;53.502;10.030;2023-09-07T04:24:26;13.94;93.74
77727;SHT30;68312;53.502;10.030;2023-09-07T04:26:53;13.93;93.71
77727;SHT30;68312;53.502;10.030;2023-09-07T04:29:18;13.89;93.68
77727;SHT30;68312;53.502;10.030;2023-09-07T04:31:43;13.87;93.72
77727;SHT30;68312;53.502;10.030;2023-09-07T04:34:09;13.87;93.86
77727;SHT30;68312;53.502;10.030;2023-09-07T04:37:21;13.90;93.91
77727;SHT30;68312;53.502;10.030;2023-09-07T04:39:51;13.91;93.94
77727;SHT30;68312;53.502;10.030;2023-09-07T04:42:20;13.90;93.96
77727;SHT30;68312;53.502;10.030;2023-09-07T04:44:49;13.86;93.89
77727;SHT30;68312;53.502;10.030;2023-09-07T04:47:14;13.84;93.86
77727;SHT30;68312;53.502;10.030;2023-09-07T04:49:41;13.84;93.96
77727;SHT30;68312;53.502;10.030;2023-09-07T04:52:06;13.84;93.92
77727;SHT30;68312;53.502;10.030;2023-09-07T04:54:32;13.90;94.02
77727;SHT30;68312;53.502;10.030;2023-09-07T04:56:57;13.90;94.00
77727;SHT30;68312;53.502;10.030;2023-09-07T04:59:23;13.90;93.96
77727;SHT30;68312;53.502;10.030;2023-09-07T05:01:48;13.91;93.97
77727;SHT30;68312;53.502;10.030;2023-09-07T05:04:14;13.94;94.00
77727;SHT30;68312;53.502;10.030;2023-09-07T05:06:39;13.99;94.10
77727;SHT30;68312;53.502;10.030;2023-09-07T05:09:07;14.06;94.18
77727;SHT30;68312;53.502;10.030;2023-09-07T05:11:32;14.06;94.15
77727;SHT30;68312;53.502;10.030;2023-09-07T05:14:01;14.10;94.19
77727;SHT30;68312;53.502;10.030;2023-09-07T05:16:27;14.10;94.12
77727;SHT30;68312;53.502;10.030;2023-09-07T05:18:52;14.13;94.10
77727;SHT30;68312;53.502;10.030;2023-09-07T05:21:18;14.13;94.13
77727;SHT30;68312;53.502;10.030;2023-09-07T05:23:46;14.17;94.17
77727;SHT30;68312;53.502;10.030;2023-09-07T05:26:12;14.23;94.20
77727;SHT30;68312;53.502;10.030;2023-09-07T05:28:40;14.25;94.20
77727;SHT30;68312;53.502;10.030;2023-09-07T05:31:06;14.31;94.22
77727;SHT30;68312;53.502;10.030;2023-09-07T05:33:33;14.35;94.19
77727;SHT30;68312;53.502;10.030;2023-09-07T05:35:58;14.42;94.19
77727;SHT30;68312;53.502;10.030;2023-09-07T05:38:23;14.46;94.23
77727;SHT30;68312;53.502;10.030;2023-09-07T05:40:49;14.54;94.23
77727;SHT30;68312;53.502;10.030;2023-09-07T05:43:19;14.60;94.27
77727;SHT30;68312;53.502;10.030;2023-09-07T05:45:45;14.69;94.29
77727;SHT30;68312;53.502;10.030;2023-09-07T05:48:10;14.79;94.35
77727;SHT30;68312;53.502;10.030;2023-09-07T05:50:37;14.93;94.37
77727;SHT30;68312;53.502;10.030;2023-09-07T05:53:04;15.04;94.39
77727;SHT30;68312;53.502;10.030;2023-09-07T05:55:30;15.24;94.49
77727;SHT30;68312;53.502;10.030;2023-09-07T05:57:56;15.40;94.50
77727;SHT30;68312;53.502;10.030;2023-09-07T06:00:22;15.55;94.56
77727;SHT30;68312;53.502;10.030;2023-09-07T06:02:48;15.68;94.69
77727;SHT30;68312;53.502;10.030;2023-09-07T06:05:14;15.81;94.66
77727;SHT30;68312;53.502;10.030;2023-09-07T06:07:40;15.89;94.58
77727;SHT30;68312;53.502;10.030;2023-09-07T06:10:05;16.06;94.61
77727;SHT30;68312;53.502;10.030;2023-09-07T06:12:33;16.19;94.53
77727;SHT30;68312;53.502;10.030;2023-09-07T06:15:00;16.34;94.54
77727;SHT30;68312;53.502;10.030;2023-09-07T06:17:26;16.49;94.40
77727;SHT30;68312;53.502;10.030;2023-09-07T06:19:52;16.66;94.26
77727;SHT30;68312;53.502;10.030;2023-09-07T06:22:17;16.78;94.16
77727;SHT30;68312;53.502;10.030;2023-09-07T06:24:42;16.89;93.99
77727;SHT30;68312;53.502;10.030;2023-09-07T06:27:08;17.04;93.76
77727;SHT30;68312;53.502;10.030;2023-09-07T06:29:33;17.17;93.47
77727;SHT30;68312;53.502;10.030;2023-09-07T06:31:59;17.29;93.19
77727;SHT30;68312;53.502;10.030;2023-09-07T06:34:24;17.40;92.76
77727;SHT30;68312;53.502;10.030;2023-09-07T06:36:50;17.45;92.20
77727;SHT30;68312;53.502;10.030;2023-09-07T06:39:15;17.61;91.97
77727;SHT30;68312;53.502;10.030;2023-09-07T06:41:41;17.80;91.36
77727;SHT30;68312;53.502;10.030;2023-09-07T06:44:07;17.96;90.82
77727;SHT30;68312;53.502;10.030;2023-09-07T06:46:32;18.13;90.00
77727;SHT30;68312;53.502;10.030;2023-09-07T06:48:58;18.24;88.60
77727;SHT30;68312;53.502;10.030;2023-09-07T06:51:23;18.42;87.15
77727;SHT30;68312;53.502;10.030;2023-09-07T06:53:48;18.65;86.44
77727;SHT30;68312;53.502;10.030;2023-09-07T06:56:15;18.82;86.49
77727;SHT30;68312;53.502;10.030;2023-09-07T06:58:41;18.96;85.89
77727;SHT30;68312;53.502;10.030;2023-09-07T07:01:06;19.04;85.65
77727;SHT30;68312;53.502;10.030;2023-09-07T07:03:32;19.23;84.72
77727;SHT30;68312;53.502;10.030;2023-09-07T07:05:59;19.37;83.36
77727;SHT30;68312;53.502;10.030;2023-09-07T07:08:24;19.54;83.65
77727;SHT30;68312;53.502;10.030;2023-09-07T07:10:49;19.53;83.59
77727;SHT30;68312;53.502;10.030;2023-09-07T07:13:15;19.54;82.95
77727;SHT30;68312;53.502;10.030;2023-09-07T07:15:41;19.61;83.72
77727;SHT30;68312;53.502;10.030;2023-09-07T07:18:07;19.68;82.72
77727;SHT30;68312;53.502;10.030;2023-09-07T07:20:38;19.85;82.59
77727;SHT30;68312;53.502;10.030;2023-09-07T07:23:04;20.02;80.68
77727;SHT30;68312;53.502;10.030;2023-09-07T07:25:31;20.22;80.37
77727;SHT30;68312;53.502;10.030;2023-09-07T07:28:01;20.30;80.28
77727;SHT30;68312;53.502;10.030;2023-09-07T07:30:31;20.41;80.88
77727;SHT30;68312;53.502;10.030;2023-09-07T07:32:56;20.47;80.36
77727;SHT30;68312;53.502;10.030;2023-09-07T07:35:22;20.64;78.74
77727;SHT30;68312;53.502;10.030;2023-09-07T07:37:49;20.85;78.55
77727;SHT30;68312;53.502;10.030;2023-09-07T07:40:15;21.04;77.92
77727;SHT30;68312;53.502;10.030;2023-09-07T07:42:41;21.35;75.66
77727;SHT30;68312;53.502;10.030;2023-09-07T07:45:08;21.57;75.88
77727;SHT30;68312;53.502;10.030;2023-09-07T07:47:33;21.89;75.29
77727;SHT30;68312;53.502;10.030;2023-09-07T07:49:59;22.25;74.65
77727;SHT30;68312;53.502;10.030;2023-09-07T07:52:24;22.66;73.05
77727;SHT30;68312;53.502;10.030;2023-09-07T07:54:49;23.12;70.20
77727;SHT30;68312;53.502;10.030;2023-09-07T07:57:15;23.31;69.50
77727;SHT30;68312;53.502;10.030;2023-09-07T07:59:40;23.74;66.96
77727;SHT30;68312;53.502;10.030;2023-09-07T08:02:05;23.71;67.77
77727;SHT30;68312;53.502;10.030;2023-09-07T08:04:32;23.82;66.63
77727;SHT30;68312;53.502;10.030;2023-09-07T08:06:58;23.70;66.96
77727;SHT30;68312;53.502;10.030;2023-09-07T08:09:29;23.72;68.03
77727;SHT30;68312;53.502;10.030;2023-09-07T08:11:54;23.86;65.65
77727;SHT30;68312;53.502;10.030;2023-09-07T08:14:21;23.92;65.75
77727;SHT30;68312;53.502;10.030;2023-09-07T08:16:47;24.04;66.20
77727;SHT30;68312;53.502;10.030;2023-09-07T08:19:13;24.18;66.57
77727;SHT30;68312;53.502;10.030;2023-09-07T08:21:39;24.35;66.30
77727;SHT30;68312;53.502;10.030;2023-09-07T08:24:10;24.50;66.27
77727;SHT30;68312;53.502;10.030;2023-09-07T08:26:36;24.57;66.33
77727;SHT30;68312;53.502;10.030;2023-09-07T08:29:01;24.80;62.85
77727;SHT30;68312;53.502;10.030;2023-09-07T08:31:35;24.94;63.68
77727;SHT30;68312;53.502;10.030;2023-09-07T08:34:01;25.15;62.75
77727;SHT30;68312;53.502;10.030;2023-09-07T08:36:29;25.50;62.64
77727;SHT30;68312;53.502;10.030;2023-09-07T08:38:58;25.87;62.98
77727;SHT30;68312;53.502;10.030;2023-09-07T08:41:26;26.12;61.55
77727;SHT30;68312;53.502;10.030;2023-09-07T08:43:54;26.31;60.20
77727;SHT30;68312;53.502;10.030;2023-09-07T08:46:22;26.56;59.07
77727;SHT30;68312;53.502;10.030;2023-09-07T08:48:49;26.71;58.10
77727;SHT30;68312;53.502;10.030;2023-09-07T08:51:17;26.85;57.66
77727;SHT30;68312;53.502;10.030;2023-09-07T08:53:43;26.98;56.86
77727;SHT30;68312;53.502;10.030;2023-09-07T08:56:12;27.09;56.71
77727;SHT30;68312;53.502;10.030;2023-09-07T08:58:38;27.47;55.35
77727;SHT30;68312;53.502;10.030;2023-09-07T09:01:05;27.64;55.57
77727;SHT30;68312;53.502;10.030;2023-09-07T09:03:31;27.90;53.13
77727;SHT30;68312;53.502;10.030;2023-09-07T09:05:57;28.06;52.60
77727;SHT30;68312;53.502;10.030;2023-09-07T09:08:23;28.31;53.25
77727;SHT30;68312;53.502;10.030;2023-09-07T09:10:59;28.50;50.61
77727;SHT30;68312;53.502;10.030;2023-09-07T09:13:32;28.93;49.91
77727;SHT30;68312;53.502;10.030;2023-09-07T09:16:01;29.14;50.20
77727;SHT30;68312;53.502;10.030;2023-09-07T09:18:28;29.54;48.24
77727;SHT30;68312;53.502;10.030;2023-09-07T09:20:55;30.85;46.48
77727;SHT30;68312;53.502;10.030;2023-09-07T09:23:21;32.15;43.26
77727;SHT30;68312;53.502;10.030;2023-09-07T09:25:50;33.26;41.38
77727;SHT30;68312;53.502;10.030;2023-09-07T09:28:16;33.69;39.44
77727;SHT30;68312;53.502;10.030;2023-09-07T09:30:41;34.05;38.72
77727;SHT30;68312;53.502;10.030;2023-09-07T09:33:10;33.91;38.71
77727;SHT30;68312;53.502;10.030;2023-09-07T09:35:35;34.40;39.40
77727;SHT30;68312;53.502;10.030;2023-09-07T09:38:01;34.43;37.18
77727;SHT30;68312;53.502;10.030;2023-09-07T09:40:33;34.47;37.53
77727;SHT30;68312;53.502;10.030;2023-09-07T09:43:02;34.60;38.88
77727;SHT30;68312;53.502;10.030;2023-09-07T09:45:29;35.19;36.18
77727;SHT30;68312;53.502;10.030;2023-09-07T09:47:56;34.87;37.21
77727;SHT30;68312;53.502;10.030;2023-09-07T09:50:22;35.17;35.00
77727;SHT30;68312;53.502;10.030;2023-09-07T09:52:48;34.88;36.72
77727;SHT30;68312;53.502;10.030;2023-09-07T09:55:15;35.18;35.86
77727;SHT30;68312;53.502;10.030;2023-09-07T09:57:41;35.11;35.22
77727;SHT30;68312;53.502;10.030;2023-09-07T10:00:07;35.24;35.33
77727;SHT30;68312;53.502;10.030;2023-09-07T10:03:02;35.41;36.07
77727;SHT30;68312;53.502;10.030;2023-09-07T10:05:30;35.75;34.27
77727;SHT30;68312;53.502;10.030;2023-09-07T10:08:03;35.35;34.85
77727;SHT30;68312;53.502;10.030;2023-09-07T10:10:34;35.18;34.48
77727;SHT30;68312;53.502;10.030;2023-09-07T10:13:01;35.73;34.36
77727;SHT30;68312;53.502;10.030;2023-09-07T10:15:28;35.45;34.87
77727;SHT30;68312;53.502;10.030;2023-09-07T10:18:09;35.17;34.63
77727;SHT30;68312;53.502;10.030;2023-09-07T10:20:58;35.27;35.85
77727;SHT30;68312;53.502;10.030;2023-09-07T10:23:36;35.25;35.51
77727;SHT30;68312;53.502;10.030;2023-09-07T10:26:04;35.01;34.38
77727;SHT30;68312;53.502;10.030;2023-09-07T10:28:30;35.21;34.66
77727;SHT30;68312;53.502;10.030;2023-09-07T10:31:05;34.74;34.24
77727;SHT30;68312;53.502;10.030;2023-09-07T10:33:35;34.92;33.87
77727;SHT30;68312;53.502;10.030;2023-09-07T10:36:02;34.73;34.28
77727;SHT30;68312;53.502;10.030;2023-09-07T10:38:31;34.67;35.10
77727;SHT30;68312;53.502;10.030;2023-09-07T10:40:58;35.00;34.49
77727;SHT30;68312;53.502;10.030;2023-09-07T10:43:26;34.97;34.27
77727;SHT30;68312;53.502;10.030;2023-09-07T10:45:56;34.46;34.69
77727;SHT30;68312;53.502;10.030;2023-09-07T10:48:28;34.37;34.47
77727;SHT30;68312;53.502;10.030;2023-09-07T10:50:54;34.61;36.27
77727;SHT30;68312;53.502;10.030;2023-09-07T10:53:31;34.97;34.92
77727;SHT30;68312;53.502;10.030;2023-09-07T10:55:59;34.59;35.38
77727;SHT30;68312;53.502;10.030;2023-09-07T10:58:30;34.67;36.03
77727;SHT30;68312;53.502;10.030;2023-09-07T11:00:57;34.87;35.85
77727;SHT30;68312;53.502;10.030;2023-09-07T11:03:25;35.18;34.95
77727;SHT30;68312;53.502;10.030;2023-09-07T11:05:55;35.45;34.50
77727;SHT30;68312;53.502;10.030;2023-09-07T11:08:22;35.25;35.68
77727;SHT30;68312;53.502;10.030;2023-09-07T11:10:50;34.95;35.72
77727;SHT30;68312;53.502;10.030;2023-09-07T11:13:17;34.63;35.35
77727;SHT30;68312;53.502;10.030;2023-09-07T11:15:43;35.05;34.37
77727;SHT30;68312;53.502;10.030;2023-09-07T11:18:09;34.57;35.15
77727;SHT30;68312;53.502;10.030;2023-09-07T11:20:36;34.35;36.35
77727;SHT30;68312;53.502;10.030;2023-09-07T11:23:02;34.60;36.86
77727;SHT30;68312;53.502;10.030;2023-09-07T11:25:35;34.71;35.35
77727;SHT30;68312;53.502;10.030;2023-09-07T11:28:06;34.26;34.79
77727;SHT30;68312;53.502;10.030;2023-09-07T11:30:33;34.37;36.27
77727;SHT30;68312;53.502;10.030;2023-09-07T11:33:01;34.54;35.30
77727;SHT30;68312;53.502;10.030;2023-09-07T11:35:27;34.66;34.81
77727;SHT30;68312;53.502;10.030;2023-09-07T11:37:53;34.44;36.86
77727;SHT30;68312;53.502;10.030;2023-09-07T11:40:19;34.50;35.02
77727;SHT30;68312;53.502;10.030;2023-09-07T11:42:53;33.91;35.53
77727;SHT30;68312;53.502;10.030;2023-09-07T11:45:19;34.33;36.94
77727;SHT30;68312;53.502;10.030;2023-09-07T11:47:47;34.22;36.20
77727;SHT30;68312;53.502;10.030;2023-09-07T11:50:13;34.20;34.99
77727;SHT30;68312;53.502;10.030;2023-09-07T11:52:38;34.29;35.34
77727;SHT30;68312;53.502;10.030;2023-09-07T11:55:04;34.13;35.61
77727;SHT30;68312;53.502;10.030;2023-09-07T11:57:30;34.33;35.21
77727;SHT30;68312;53.502;10.030;2023-09-07T11:59:56;34.29;35.81
77727;SHT30;68312;53.502;10.030;2023-09-07T12:02:21;34.17;34.35
77727;SHT30;68312;53.502;10.030;2023-09-07T12:04:47;34.64;35.37
77727;SHT30;68312;53.502;10.030;2023-09-07T12:07:14;34.47;34.42
77727;SHT30;68312;53.502;10.030;2023-09-07T12:09:40;34.46;35.68
77727;SHT30;68312;53.502;10.030;2023-09-07T12:12:06;34.42;37.47
77727;SHT30;68312;53.502;10.030;2023-09-07T12:14:31;34.46;34.06
77727;SHT30;68312;53.502;10.030;2023-09-07T12:16:57;35.29;34.12
77727;SHT30;68312;53.502;10.030;2023-09-07T12:19:22;35.42;31.82
77727;SHT30;68312;53.502;10.030;2023-09-07T12:21:48;35.11;33.50
77727;SHT30;68312;53.502;10.030;2023-09-07T12:24:13;34.88;32.25
77727;SHT30;68312;53.502;10.030;2023-09-07T12:26:38;34.49;33.58
77727;SHT30;68312;53.502;10.030;2023-09-07T12:29:04;34.35;35.13
77727;SHT30;68312;53.502;10.030;2023-09-07T12:31:30;34.97;34.72
77727;SHT30;68312;53.502;10.030;2023-09-07T12:33:57;34.97;34.33
77727;SHT30;68312;53.502;10.030;2023-09-07T12:36:22;35.49;31.87
77727;SHT30;68312;53.502;10.030;2023-09-07T12:38:48;35.66;30.52
77727;SHT30;68312;53.502;10.030;2023-09-07T12:41:14;35.34;31.77
77727;SHT30;68312;53.502;10.030;2023-09-07T12:43:41;35.22;32.61
77727;SHT30;68312;53.502;10.030;2023-09-07T12:46:08;34.74;32.85
77727;SHT30;68312;53.502;10.030;2023-09-07T12:48:34;34.77;32.29
77727;SHT30;68312;53.502;10.030;2023-09-07T12:50:59;35.11;31.86
77727;SHT30;68312;53.502;10.030;2023-09-07T12:53:24;34.95;31.64
77727;SHT30;68312;53.502;10.030;2023-09-07T12:55:53;35.28;35.08
77727;SHT30;68312;53.502;10.030;2023-09-07T12:58:18;35.41;31.49
77727;SHT30;68312;53.502;10.030;2023-09-07T13:00:43;35.38;32.33
77727;SHT30;68312;53.502;10.030;2023-09-07T13:03:09;35.35;33.20
77727;SHT30;68312;53.502;10.030;2023-09-07T13:05:34;35.29;31.90
77727;SHT30;68312;53.502;10.030;2023-09-07T13:08:01;35.46;31.58
77727;SHT30;68312;53.502;10.030;2023-09-07T13:10:28;35.34;31.93
77727;SHT30;68312;53.502;10.030;2023-09-07T13:12:54;35.45;31.84
77727;SHT30;68312;53.502;10.030;2023-09-07T13:15:20;35.37;30.40
77727;SHT30;68312;53.502;10.030;2023-09-07T13:17:45;35.56;31.75
77727;SHT30;68312;53.502;10.030;2023-09-07T13:20:11;35.59;30.12
77727;SHT30;68312;53.502;10.030;2023-09-07T13:22:37;35.31;30.79
77727;SHT30;68312;53.502;10.030;2023-09-07T13:25:03;35.50;29.86
77727;SHT30;68312;53.502;10.030;2023-09-07T13:27:30;35.92;29.98
77727;SHT30;68312;53.502;10.030;2023-09-07T13:29:56;35.80;29.47
77727;SHT30;68312;53.502;10.030;2023-09-07T13:32:23;35.25;29.65
77727;SHT30;68312;53.502;10.030;2023-09-07T13:34:50;36.00;29.52
77727;SHT30;68312;53.502;10.030;2023-09-07T13:37:15;35.89;29.96
77727;SHT30;68312;53.502;10.030;2023-09-07T13:39:40;35.62;29.97
77727;SHT30;68312;53.502;10.030;2023-09-07T13:42:06;35.85;29.41
77727;SHT30;68312;53.502;10.030;2023-09-07T13:44:32;35.82;30.20
77727;SHT30;68312;53.502;10.030;2023-09-07T13:46:57;35.82;28.83
77727;SHT30;68312;53.502;10.030;2023-09-07T13:49:23;36.07;29.77
77727;SHT30;68312;53.502;10.030;2023-09-07T13:51:48;35.80;28.48
77727;SHT30;68312;53.502;10.030;2023-09-07T13:54:13;35.66;30.40
77727;SHT30;68312;53.502;10.030;2023-09-07T13:56:39;35.82;29.15
77727;SHT30;68312;53.502;10.030;2023-09-07T13:59:06;36.01;28.32
77727;SHT30;68312;53.502;10.030;2023-09-07T14:01:31;36.08;28.07
77727;SHT30;68312;53.502;10.030;2023-09-07T14:03:57;35.55;29.24
77727;SHT30;68312;53.502;10.030;2023-09-07T14:06:23;35.58;31.61
77727;SHT30;68312;53.502;10.030;2023-09-07T14:08:49;35.72;30.12
77727;SHT30;68312;53.502;10.030;2023-09-07T14:11:19;35.86;29.44
77727;SHT30;68312;53.502;10.030;2023-09-07T14:13:47;35.82;28.05
77727;SHT30;68312;53.502;10.030;2023-09-07T14:16:12;35.97;28.35
77727;SHT30;68312;53.502;10.030;2023-09-07T14:18:37;35.86;29.65
77727;SHT30;68312;53.502;10.030;2023-09-07T14:21:03;35.85;28.89
77727;SHT30;68312;53.502;10.030;2023-09-07T14:23:29;36.21;28.58
77727;SHT30;68312;53.502;10.030;2023-09-07T14:25:55;35.89;27.65
77727;SHT30;68312;53.502;10.030;2023-09-07T14:28:20;35.53;28.49
77727;SHT30;68312;53.502;10.030;2023-09-07T14:30:47;35.45;28.81
77727;SHT30;68312;53.502;10.030;2023-09-07T14:33:13;35.25;28.51
77727;SHT30;68312;53.502;10.030;2023-09-07T14:35:38;35.04;29.49
77727;SHT30;68312;53.502;10.030;2023-09-07T14:38:04;34.47;29.81
77727;SHT30;68312;53.502;10.030;2023-09-07T14:40:30;34.71;30.52
77727;SHT30;68312;53.502;10.030;2023-09-07T14:42:55;34.37;30.46
77727;SHT30;68312;53.502;10.030;2023-09-07T14:45:23;34.36;31.55
77727;SHT30;68312;53.502;10.030;2023-09-07T14:47:50;34.19;30.96
77727;SHT30;68312;53.502;10.030;2023-09-07T14:50:16;34.01;32.02
77727;SHT30;68312;53.502;10.030;2023-09-07T14:52:41;33.54;32.49
77727;SHT30;68312;53.502;10.030;2023-09-07T14:55:09;33.16;34.23
77727;SHT30;68312;53.502;10.030;2023-09-07T14:57:35;33.06;33.65
77727;SHT30;68312;53.502;10.030;2023-09-07T15:00:01;32.84;34.15
77727;SHT30;68312;53.502;10.030;2023-09-07T15:02:29;32.45;36.02
77727;SHT30;68312;53.502;10.030;2023-09-07T15:04:54;32.36;35.56
77727;SHT30;68312;53.502;10.030;2023-09-07T15:07:20;32.24;34.81
77727;SHT30;68312;53.502;10.030;2023-09-07T15:09:48;32.17;35.10
77727;SHT30;68312;53.502;10.030;2023-09-07T15:12:14;31.90;36.11
77727;SHT30;68312;53.502;10.030;2023-09-07T15:14:40;31.60;39.65
77727;SHT30;68312;53.502;10.030;2023-09-07T15:17:05;31.13;37.67